sensor_id;sensor_type;location;lat;lon;timestamp;P1;durP1;ratioP1;P2;durP2;ratioP2
75935;SDS011;64614;32.062;34.834;2024-01-15T00:00:43;4.28;;;1.95;;
75935;SDS011;64614;32.062;34.834;2024-01-15T00:03:09;5.20;;;1.90;;
75935;SDS011;64614;32.062;34.834;2024-01-15T00:05:35;4.35;;;1.92;;
75935;SDS011;64614;32.062;34.834;2024-01-15T00:08:01;5.80;;;2.15;;
75935;SDS011;64614;32.062;34.834;2024-01-15T00:10:27;4.80;;;2.05;;
75935;SDS011;64614;32.062;34.834;2024-01-15T00:12:52;5.03;;;1.95;;
75935;SDS011;64614;32.062;34.834;2024-01-15T00:15:18;3.88;;;2.00;;
75935;SDS011;64614;32.062;34.834;2024-01-15T00:17:43;4.32;;;1.90;;
75935;SDS011;64614;32.062;34.834;2024-01-15T00:20:13;4.47;;;1.65;;
75935;SDS011;64614;32.062;34.834;2024-01-15T00:22:38;5.45;;;2.10;;
75935;SDS011;64614;32.062;34.834;2024-01-15T00:25:04;5.88;;;1.73;;
75935;SDS011;64614;32.062;34.834;2024-01-15T00:27:31;4.10;;;1.60;;
75935;SDS011;64614;32.062;34.834;2024-01-15T00:29:57;3.72;;;1.65;;
75935;SDS011;64614;32.062;34.834;2024-01-15T00:32:22;4.22;;;1.80;;
75935;SDS011;64614;32.062;34.834;2024-01-15T00:34:48;4.28;;;1.70;;
75935;SDS011;64614;32.062;34.834;2024-01-15T00:37:14;4.00;;;1.58;;
75935;SDS011;64614;32.062;34.834;2024-01-15T00:39:39;3.78;;;1.63;;
75935;SDS011;64614;32.062;34.834;2024-01-15T00:42:05;4.05;;;1.60;;
75935;SDS011;64614;32.062;34.834;2024-01-15T00:44:31;4.38;;;1.75;;
75935;SDS011;64614;32.062;34.834;2024-01-15T00:46:56;4.22;;;1.88;;
75935;SDS011;64614;32.062;34.834;2024-01-15T00:49:22;4.13;;;1.85;;
75935;SDS011;64614;32.062;34.834;2024-01-15T00:51:47;4.95;;;1.90;;
75935;SDS011;64614;32.062;34.834;2024-01-15T00:54:13;6.28;;;1.88;;
75935;SDS011;64614;32.062;34.834;2024-01-15T00:56:39;4.10;;;1.90;;
75935;SDS011;64614;32.062;34.834;2024-01-15T00:59:04;5.13;;;1.98;;
75935;SDS011;64614;32.062;34.834;2024-01-15T01:01:30;4.82;;;1.80;;
75935;SDS011;64614;32.062;34.834;2024-01-15T01:03:57;4.63;;;1.70;;
75935;SDS011;64614;32.062;34.834;2024-01-15T01:06:26;4.65;;;1.98;;
75935;SDS011;64614;32.062;34.834;2024-01-15T01:08:52;3.47;;;1.60;;
75935;SDS011;64614;32.062;34.834;2024-01-15T01:11:19;4.93;;;2.00;;
75935;SDS011;64614;32.062;34.834;2024-01-15T01:13:45;3.83;;;1.77;;
75935;SDS011;64614;32.062;34.834;2024-01-15T01:16:11;4.10;;;1.90;;
75935;SDS011;64614;32.062;34.834;2024-01-15T01:21:13;3.53;;;1.70;;
75935;SDS011;64614;32.062;34.834;2024-01-15T01:23:39;4.47;;;1.80;;
75935;SDS011;64614;32.062;34.834;2024-01-15T01:26:04;4.88;;;1.98;;
75935;SDS011;64614;32.062;34.834;2024-01-15T01:28:30;4.43;;;1.90;;
75935;SDS011;64614;32.062;34.834;2024-01-15T01:30:55;3.60;;;1.77;;
75935;SDS011;64614;32.062;34.834;2024-01-15T01:33:21;4.35;;;2.08;;
75935;SDS011;64614;32.062;34.834;2024-01-15T01:35:47;3.80;;;1.80;;
75935;SDS011;64614;32.062;34.834;2024-01-15T01:38:12;4.00;;;1.70;;
75935;SDS011;64614;32.062;34.834;2024-01-15T01:40:38;4.63;;;1.70;;
75935;SDS011;64614;32.062;34.834;2024-01-15T01:43:08;4.82;;;1.85;;
75935;SDS011;64614;32.062;34.834;2024-01-15T01:45:35;3.72;;;1.77;;
75935;SDS011;64614;32.062;34.834;2024-01-15T01:48:01;4.15;;;1.70;;
75935;SDS011;64614;32.062;34.834;2024-01-15T01:50:28;3.78;;;1.73;;
75935;SDS011;64614;32.062;34.834;2024-01-15T01:52:55;3.30;;;1.60;;
75935;SDS011;64614;32.062;34.834;2024-01-15T01:55:21;3.90;;;1.80;;
75935;SDS011;64614;32.062;34.834;2024-01-15T01:57:49;4.70;;;1.70;;
75935;SDS011;64614;32.062;34.834;2024-01-15T02:00:16;3.45;;;1.60;;
75935;SDS011;64614;32.062;34.834;2024-01-15T02:02:42;2.90;;;1.50;;
75935;SDS011;64614;32.062;34.834;2024-01-15T02:05:08;3.35;;;1.63;;
75935;SDS011;64614;32.062;34.834;2024-01-15T02:07:35;4.50;;;1.83;;
75935;SDS011;64614;32.062;34.834;2024-01-15T02:10:01;2.85;;;1.60;;
75935;SDS011;64614;32.062;34.834;2024-01-15T02:12:28;4.13;;;1.90;;
75935;SDS011;64614;32.062;34.834;2024-01-15T02:14:54;4.80;;;1.73;;
75935;SDS011;64614;32.062;34.834;2024-01-15T02:17:19;4.10;;;1.73;;
75935;SDS011;64614;32.062;34.834;2024-01-15T02:19:45;3.22;;;1.77;;
75935;SDS011;64614;32.062;34.834;2024-01-15T02:22:10;3.63;;;1.80;;
75935;SDS011;64614;32.062;34.834;2024-01-15T02:24:36;3.72;;;1.80;;
75935;SDS011;64614;32.062;34.834;2024-01-15T02:27:02;4.30;;;1.65;;
75935;SDS011;64614;32.062;34.834;2024-01-15T02:29:27;4.28;;;1.70;;
75935;SDS011;64614;32.062;34.834;2024-01-15T02:31:53;3.75;;;1.48;;
75935;SDS011;64614;32.062;34.834;2024-01-15T02:34:19;5.43;;;1.80;;
75935;SDS011;64614;32.062;34.834;2024-01-15T02:36:44;3.08;;;1.73;;
75935;SDS011;64614;32.062;34.834;2024-01-15T02:39:10;4.15;;;1.80;;
75935;SDS011;64614;32.062;34.834;2024-01-15T02:41:36;2.83;;;1.60;;
75935;SDS011;64614;32.062;34.834;2024-01-15T02:44:03;3.53;;;1.63;;
75935;SDS011;64614;32.062;34.834;2024-01-15T02:46:28;4.95;;;1.90;;
75935;SDS011;64614;32.062;34.834;2024-01-15T02:48:54;3.85;;;1.50;;
75935;SDS011;64614;32.062;34.834;2024-01-15T02:51:20;3.63;;;1.70;;
75935;SDS011;64614;32.062;34.834;2024-01-15T02:53:45;3.78;;;1.85;;
75935;SDS011;64614;32.062;34.834;2024-01-15T02:56:11;4.13;;;1.80;;
75935;SDS011;64614;32.062;34.834;2024-01-15T02:58:36;4.03;;;1.83;;
75935;SDS011;64614;32.062;34.834;2024-01-15T03:01:02;4.22;;;1.60;;
75935;SDS011;64614;32.062;34.834;2024-01-15T03:03:28;3.67;;;1.70;;
75935;SDS011;64614;32.062;34.834;2024-01-15T03:05:53;2.90;;;1.60;;
75935;SDS011;64614;32.062;34.834;2024-01-15T03:08:19;4.50;;;1.90;;
75935;SDS011;64614;32.062;34.834;2024-01-15T03:10:45;3.95;;;1.58;;
75935;SDS011;64614;32.062;34.834;2024-01-15T03:13:11;3.38;;;1.63;;
75935;SDS011;64614;32.062;34.834;2024-01-15T03:15:37;2.67;;;1.60;;
75935;SDS011;64614;32.062;34.834;2024-01-15T03:18:03;3.33;;;1.73;;
75935;SDS011;64614;32.062;34.834;2024-01-15T03:20:29;4.00;;;1.70;;
75935;SDS011;64614;32.062;34.834;2024-01-15T03:22:54;2.72;;;1.60;;
75935;SDS011;64614;32.062;34.834;2024-01-15T03:25:20;2.83;;;1.65;;
75935;SDS011;64614;32.062;34.834;2024-01-15T03:27:46;3.20;;;1.60;;
75935;SDS011;64614;32.062;34.834;2024-01-15T03:30:11;3.75;;;1.45;;
75935;SDS011;64614;32.062;34.834;2024-01-15T03:32:37;3.90;;;1.60;;
75935;SDS011;64614;32.062;34.834;2024-01-15T03:35:03;3.20;;;1.52;;
75935;SDS011;64614;32.062;34.834;2024-01-15T03:37:29;3.00;;;1.60;;
75935;SDS011;64614;32.062;34.834;2024-01-15T03:39:55;2.80;;;1.45;;
75935;SDS011;64614;32.062;34.834;2024-01-15T03:42:20;3.30;;;1.60;;
75935;SDS011;64614;32.062;34.834;2024-01-15T03:44:46;1.83;;;1.38;;
75935;SDS011;64614;32.062;34.834;2024-01-15T03:47:11;2.83;;;1.38;;
75935;SDS011;64614;32.062;34.834;2024-01-15T03:49:37;4.45;;;1.80;;
75935;SDS011;64614;32.062;34.834;2024-01-15T03:52:03;2.70;;;1.50;;
75935;SDS011;64614;32.062;34.834;2024-01-15T03:54:30;3.05;;;1.70;;
75935;SDS011;64614;32.062;34.834;2024-01-15T03:56:55;2.72;;;1.70;;
75935;SDS011;64614;32.062;34.834;2024-01-15T03:59:21;4.43;;;1.70;;
75935;SDS011;64614;32.062;34.834;2024-01-15T04:01:50;3.40;;;1.67;;
75935;SDS011;64614;32.062;34.834;2024-01-15T04:04:16;3.58;;;1.80;;
75935;SDS011;64614;32.062;34.834;2024-01-15T04:06:43;2.20;;;1.40;;
75935;SDS011;64614;32.062;34.834;2024-01-15T04:09:08;3.70;;;1.48;;
75935;SDS011;64614;32.062;34.834;2024-01-15T04:11:34;4.72;;;1.67;;
75935;SDS011;64614;32.062;34.834;2024-01-15T04:14:00;3.72;;;1.70;;
75935;SDS011;64614;32.062;34.834;2024-01-15T04:16:25;3.22;;;1.52;;
75935;SDS011;64614;32.062;34.834;2024-01-15T04:18:51;5.55;;;2.47;;
75935;SDS011;64614;32.062;34.834;2024-01-15T04:21:17;5.50;;;2.20;;
75935;SDS011;64614;32.062;34.834;2024-01-15T04:23:43;5.10;;;2.20;;
75935;SDS011;64614;32.062;34.834;2024-01-15T04:26:09;6.95;;;2.08;;
75935;SDS011;64614;32.062;34.834;2024-01-15T04:28:34;6.72;;;2.10;;
75935;SDS011;64614;32.062;34.834;2024-01-15T04:31:00;5.43;;;2.03;;
75935;SDS011;64614;32.062;34.834;2024-01-15T04:33:26;5.20;;;2.00;;
75935;SDS011;64614;32.062;34.834;2024-01-15T04:35:51;5.38;;;2.28;;
75935;SDS011;64614;32.062;34.834;2024-01-15T04:38:22;3.85;;;1.83;;
75935;SDS011;64614;32.062;34.834;2024-01-15T04:40:48;4.88;;;1.90;;
75935;SDS011;64614;32.062;34.834;2024-01-15T04:43:20;4.82;;;1.90;;
75935;SDS011;64614;32.062;34.834;2024-01-15T04:45:45;5.93;;;2.13;;
75935;SDS011;64614;32.062;34.834;2024-01-15T04:48:14;5.45;;;2.60;;
75935;SDS011;64614;32.062;34.834;2024-01-15T04:55:51;6.78;;;2.40;;
75935;SDS011;64614;32.062;34.834;2024-01-15T04:58:19;9.88;;;2.83;;
75935;SDS011;64614;32.062;34.834;2024-01-15T05:00:51;17.00;;;2.75;;
75935;SDS011;64614;32.062;34.834;2024-01-15T05:03:17;8.15;;;2.80;;
75935;SDS011;64614;32.062;34.834;2024-01-15T05:05:43;11.75;;;2.83;;
75935;SDS011;64614;32.062;34.834;2024-01-15T05:08:09;5.75;;;2.75;;
75935;SDS011;64614;32.062;34.834;2024-01-15T05:10:35;7.50;;;2.97;;
75935;SDS011;64614;32.062;34.834;2024-01-15T05:13:03;6.65;;;3.03;;
75935;SDS011;64614;32.062;34.834;2024-01-15T05:15:29;7.88;;;2.90;;
75935;SDS011;64614;32.062;34.834;2024-01-15T05:17:54;5.82;;;2.85;;
75935;SDS011;64614;32.062;34.834;2024-01-15T05:20:20;8.48;;;3.05;;
75935;SDS011;64614;32.062;34.834;2024-01-15T05:22:46;6.93;;;3.00;;
75935;SDS011;64614;32.062;34.834;2024-01-15T05:25:11;8.35;;;3.10;;
75935;SDS011;64614;32.062;34.834;2024-01-15T05:27:37;7.75;;;3.30;;
75935;SDS011;64614;32.062;34.834;2024-01-15T05:30:03;8.20;;;2.90;;
75935;SDS011;64614;32.062;34.834;2024-01-15T05:32:29;7.68;;;3.10;;
75935;SDS011;64614;32.062;34.834;2024-01-15T05:34:54;8.27;;;3.00;;
75935;SDS011;64614;32.062;34.834;2024-01-15T05:37:20;8.88;;;3.05;;
75935;SDS011;64614;32.062;34.834;2024-01-15T05:39:46;10.13;;;2.80;;
75935;SDS011;64614;32.062;34.834;2024-01-15T05:42:11;8.35;;;3.03;;
75935;SDS011;64614;32.062;34.834;2024-01-15T05:44:37;10.30;;;3.08;;
75935;SDS011;64614;32.062;34.834;2024-01-15T05:47:03;7.82;;;3.30;;
75935;SDS011;64614;32.062;34.834;2024-01-15T05:49:29;7.85;;;3.17;;
75935;SDS011;64614;32.062;34.834;2024-01-15T05:51:55;8.70;;;3.80;;
75935;SDS011;64614;32.062;34.834;2024-01-15T05:54:20;6.63;;;2.95;;
75935;SDS011;64614;32.062;34.834;2024-01-15T05:56:46;7.65;;;3.10;;
75935;SDS011;64614;32.062;34.834;2024-01-15T05:59:12;8.15;;;2.90;;
75935;SDS011;64614;32.062;34.834;2024-01-15T06:01:37;7.63;;;3.05;;
75935;SDS011;64614;32.062;34.834;2024-01-15T06:04:04;7.53;;;2.83;;
75935;SDS011;64614;32.062;34.834;2024-01-15T06:07:01;6.53;;;3.03;;
75935;SDS011;64614;32.062;34.834;2024-01-15T06:09:29;8.00;;;3.20;;
75935;SDS011;64614;32.062;34.834;2024-01-15T06:11:56;7.10;;;3.30;;
75935;SDS011;64614;32.062;34.834;2024-01-15T06:14:25;5.70;;;2.70;;
75935;SDS011;64614;32.062;34.834;2024-01-15T06:16:50;6.47;;;3.05;;
75935;SDS011;64614;32.062;34.834;2024-01-15T06:19:17;7.68;;;3.15;;
75935;SDS011;64614;32.062;34.834;2024-01-15T06:21:42;5.65;;;2.95;;
75935;SDS011;64614;32.062;34.834;2024-01-15T06:24:08;5.55;;;2.70;;
75935;SDS011;64614;32.062;34.834;2024-01-15T06:26:35;7.68;;;3.28;;
75935;SDS011;64614;32.062;34.834;2024-01-15T06:29:01;6.72;;;3.20;;
75935;SDS011;64614;32.062;34.834;2024-01-15T06:31:28;6.25;;;3.13;;
75935;SDS011;64614;32.062;34.834;2024-01-15T06:33:54;6.78;;;2.72;;
75935;SDS011;64614;32.062;34.834;2024-01-15T06:36:20;6.45;;;2.95;;
75935;SDS011;64614;32.062;34.834;2024-01-15T06:38:46;5.68;;;2.67;;
75935;SDS011;64614;32.062;34.834;2024-01-15T06:41:12;5.60;;;2.47;;
75935;SDS011;64614;32.062;34.834;2024-01-15T06:43:38;6.95;;;2.55;;
75935;SDS011;64614;32.062;34.834;2024-01-15T06:46:03;7.25;;;3.05;;
75935;SDS011;64614;32.062;34.834;2024-01-15T06:48:29;6.47;;;3.10;;
75935;SDS011;64614;32.062;34.834;2024-01-15T06:50:55;5.85;;;2.80;;
75935;SDS011;64614;32.062;34.834;2024-01-15T06:53:20;7.80;;;3.15;;
75935;SDS011;64614;32.062;34.834;2024-01-15T06:55:46;7.65;;;2.97;;
75935;SDS011;64614;32.062;34.834;2024-01-15T06:58:12;7.45;;;3.10;;
75935;SDS011;64614;32.062;34.834;2024-01-15T07:00:37;5.15;;;2.58;;
75935;SDS011;64614;32.062;34.834;2024-01-15T07:03:03;6.28;;;2.78;;
75935;SDS011;64614;32.062;34.834;2024-01-15T07:05:29;6.55;;;2.70;;
75935;SDS011;64614;32.062;34.834;2024-01-15T07:07:55;6.47;;;2.90;;
75935;SDS011;64614;32.062;34.834;2024-01-15T07:10:21;6.85;;;2.50;;
75935;SDS011;64614;32.062;34.834;2024-01-15T07:12:47;5.57;;;2.53;;
75935;SDS011;64614;32.062;34.834;2024-01-15T07:15:12;6.07;;;2.65;;
75935;SDS011;64614;32.062;34.834;2024-01-15T07:17:38;5.25;;;2.42;;
75935;SDS011;64614;32.062;34.834;2024-01-15T07:20:05;6.03;;;2.65;;
75935;SDS011;64614;32.062;34.834;2024-01-15T10:13:20;2.97;;;1.45;;
75935;SDS011;64614;32.062;34.834;2024-01-15T10:15:47;3.83;;;1.73;;
75935;SDS011;64614;32.062;34.834;2024-01-15T10:18:13;3.92;;;1.80;;
75935;SDS011;64614;32.062;34.834;2024-01-15T10:20:39;2.58;;;1.30;;
75935;SDS011;64614;32.062;34.834;2024-01-15T10:23:05;2.05;;;1.42;;
75935;SDS011;64614;32.062;34.834;2024-01-15T10:28:21;3.20;;;1.63;;
75935;SDS011;64614;32.062;34.834;2024-01-15T10:30:56;2.67;;;1.75;;
75935;SDS011;64614;32.062;34.834;2024-01-15T10:33:24;2.90;;;1.88;;
75935;SDS011;64614;32.062;34.834;2024-01-15T10:35:54;2.65;;;1.42;;
75935;SDS011;64614;32.062;34.834;2024-01-15T10:38:21;3.55;;;1.60;;
75935;SDS011;64614;32.062;34.834;2024-01-15T10:40:48;3.80;;;1.83;;
75935;SDS011;64614;32.062;34.834;2024-01-15T10:43:20;3.78;;;1.98;;
75935;SDS011;64614;32.062;34.834;2024-01-15T10:48:37;4.88;;;1.80;;
75935;SDS011;64614;32.062;34.834;2024-01-15T10:51:04;5.03;;;2.42;;
75935;SDS011;64614;32.062;34.834;2024-01-15T10:53:36;3.67;;;1.70;;
75935;SDS011;64614;32.062;34.834;2024-01-15T10:56:07;4.55;;;1.98;;
75935;SDS011;64614;32.062;34.834;2024-01-15T10:58:35;5.57;;;1.77;;
75935;SDS011;64614;32.062;34.834;2024-01-15T11:01:02;3.13;;;1.60;;
75935;SDS011;64614;32.062;34.834;2024-01-15T11:03:29;4.22;;;1.77;;
75935;SDS011;64614;32.062;34.834;2024-01-15T11:05:55;2.60;;;1.30;;
75935;SDS011;64614;32.062;34.834;2024-01-15T11:08:21;3.90;;;1.75;;
75935;SDS011;64614;32.062;34.834;2024-01-15T11:10:47;3.92;;;1.42;;
75935;SDS011;64614;32.062;34.834;2024-01-15T11:13:20;4.70;;;1.55;;
75935;SDS011;64614;32.062;34.834;2024-01-15T11:16:03;11.77;;;2.05;;
75935;SDS011;64614;32.062;34.834;2024-01-15T11:18:30;6.85;;;1.98;;
75935;SDS011;64614;32.062;34.834;2024-01-15T11:23:46;2.70;;;1.40;;
75935;SDS011;64614;32.062;34.834;2024-01-15T11:26:28;5.82;;;1.80;;
75935;SDS011;64614;32.062;34.834;2024-01-15T11:28:56;4.03;;;1.63;;
75935;SDS011;64614;32.062;34.834;2024-01-15T11:34:08;4.72;;;1.60;;
75935;SDS011;64614;32.062;34.834;2024-01-15T11:41:57;5.22;;;1.88;;
75935;SDS011;64614;32.062;34.834;2024-01-15T11:44:27;5.53;;;1.67;;
75935;SDS011;64614;32.062;34.834;2024-01-15T11:46:57;4.90;;;1.70;;
75935;SDS011;64614;32.062;34.834;2024-01-15T11:52:35;5.25;;;1.60;;
75935;SDS011;64614;32.062;34.834;2024-01-15T11:55:07;4.30;;;1.60;;
75935;SDS011;64614;32.062;34.834;2024-01-15T12:00:14;3.50;;;1.50;;
75935;SDS011;64614;32.062;34.834;2024-01-15T12:02:41;4.18;;;1.65;;
75935;SDS011;64614;32.062;34.834;2024-01-15T12:05:13;2.55;;;1.40;;
75935;SDS011;64614;32.062;34.834;2024-01-15T12:07:43;4.75;;;1.70;;
75935;SDS011;64614;32.062;34.834;2024-01-15T12:10:11;4.82;;;1.60;;
75935;SDS011;64614;32.062;34.834;2024-01-15T12:15:29;3.40;;;1.60;;
75935;SDS011;64614;32.062;34.834;2024-01-15T12:17:56;2.30;;;1.30;;
75935;SDS011;64614;32.062;34.834;2024-01-15T12:20:24;4.53;;;1.42;;
75935;SDS011;64614;32.062;34.834;2024-01-15T12:22:57;2.80;;;1.52;;
75935;SDS011;64614;32.062;34.834;2024-01-15T12:25:23;3.88;;;1.45;;
75935;SDS011;64614;32.062;34.834;2024-01-15T12:27:49;3.30;;;1.58;;
75935;SDS011;64614;32.062;34.834;2024-01-15T12:30:16;4.72;;;1.65;;
75935;SDS011;64614;32.062;34.834;2024-01-15T12:32:42;3.72;;;1.70;;
75935;SDS011;64614;32.062;34.834;2024-01-15T12:35:08;4.35;;;1.60;;
75935;SDS011;64614;32.062;34.834;2024-01-15T12:37:37;3.53;;;1.77;;
75935;SDS011;64614;32.062;34.834;2024-01-15T12:40:04;3.25;;;1.58;;
75935;SDS011;64614;32.062;34.834;2024-01-15T12:42:32;2.55;;;1.40;;
75935;SDS011;64614;32.062;34.834;2024-01-15T12:44:58;3.58;;;1.80;;
75935;SDS011;64614;32.062;34.834;2024-01-15T12:47:24;2.85;;;1.40;;
75935;SDS011;64614;32.062;34.834;2024-01-15T12:49:54;3.45;;;1.63;;
75935;SDS011;64614;32.062;34.834;2024-01-15T12:54:47;3.83;;;1.73;;
75935;SDS011;64614;32.062;34.834;2024-01-15T12:57:16;5.28;;;1.88;;
75935;SDS011;64614;32.062;34.834;2024-01-15T12:59:45;3.30;;;1.52;;
75935;SDS011;64614;32.062;34.834;2024-01-15T13:02:12;3.25;;;1.50;;
75935;SDS011;64614;32.062;34.834;2024-01-15T13:04:38;3.35;;;1.70;;
75935;SDS011;64614;32.062;34.834;2024-01-15T13:07:05;4.00;;;1.70;;
75935;SDS011;64614;32.062;34.834;2024-01-15T13:09:31;3.25;;;1.55;;
75935;SDS011;64614;32.062;34.834;2024-01-15T13:11:57;3.13;;;1.70;;
75935;SDS011;64614;32.062;34.834;2024-01-15T13:14:23;2.80;;;1.70;;
75935;SDS011;64614;32.062;34.834;2024-01-15T13:16:51;3.65;;;1.90;;
75935;SDS011;64614;32.062;34.834;2024-01-15T13:19:19;3.72;;;2.00;;
75935;SDS011;64614;32.062;34.834;2024-01-15T13:21:47;3.55;;;1.95;;
75935;SDS011;64614;32.062;34.834;2024-01-15T13:24:13;4.50;;;2.10;;
75935;SDS011;64614;32.062;34.834;2024-01-15T13:26:39;3.25;;;2.00;;
75935;SDS011;64614;32.062;34.834;2024-01-15T13:29:06;6.03;;;2.10;;
75935;SDS011;64614;32.062;34.834;2024-01-15T13:31:32;3.58;;;1.90;;
75935;SDS011;64614;32.062;34.834;2024-01-15T13:33:59;6.45;;;2.20;;
75935;SDS011;64614;32.062;34.834;2024-01-15T13:36:25;7.55;;;3.25;;
75935;SDS011;64614;32.062;34.834;2024-01-15T13:38:52;6.25;;;2.92;;
75935;SDS011;64614;32.062;34.834;2024-01-15T13:41:21;5.45;;;3.00;;
75935;SDS011;64614;32.062;34.834;2024-01-15T13:43:50;6.40;;;2.95;;
75935;SDS011;64614;32.062;34.834;2024-01-15T13:46:18;6.60;;;3.20;;
75935;SDS011;64614;32.062;34.834;2024-01-15T13:48:44;6.80;;;3.10;;
75935;SDS011;64614;32.062;34.834;2024-01-15T13:51:10;6.40;;;3.38;;
75935;SDS011;64614;32.062;34.834;2024-01-15T13:53:37;7.97;;;3.38;;
75935;SDS011;64614;32.062;34.834;2024-01-15T13:56:03;6.90;;;3.60;;
75935;SDS011;64614;32.062;34.834;2024-01-15T13:58:30;6.38;;;3.25;;
75935;SDS011;64614;32.062;34.834;2024-01-15T14:00:56;5.90;;;3.05;;
75935;SDS011;64614;32.062;34.834;2024-01-15T14:03:22;7.78;;;3.13;;
75935;SDS011;64614;32.062;34.834;2024-01-15T14:05:47;6.20;;;3.25;;
75935;SDS011;64614;32.062;34.834;2024-01-15T14:08:13;6.75;;;2.90;;
75935;SDS011;64614;32.062;34.834;2024-01-15T14:10:40;7.03;;;3.15;;
75935;SDS011;64614;32.062;34.834;2024-01-15T14:13:05;6.32;;;3.17;;
75935;SDS011;64614;32.062;34.834;2024-01-15T14:15:31;6.80;;;2.72;;
75935;SDS011;64614;32.062;34.834;2024-01-15T14:17:56;7.13;;;3.22;;
75935;SDS011;64614;32.062;34.834;2024-01-15T14:20:23;7.25;;;2.95;;
75935;SDS011;64614;32.062;34.834;2024-01-15T14:22:49;5.45;;;3.10;;
75935;SDS011;64614;32.062;34.834;2024-01-15T14:25:14;5.18;;;3.03;;
75935;SDS011;64614;32.062;34.834;2024-01-15T14:27:40;5.22;;;2.80;;
75935;SDS011;64614;32.062;34.834;2024-01-15T14:30:06;6.47;;;3.28;;
75935;SDS011;64614;32.062;34.834;2024-01-15T14:32:33;6.47;;;3.42;;
75935;SDS011;64614;32.062;34.834;2024-01-15T14:34:59;6.38;;;3.20;;
75935;SDS011;64614;32.062;34.834;2024-01-15T14:37:25;4.78;;;2.63;;
75935;SDS011;64614;32.062;34.834;2024-01-15T14:39:51;4.60;;;2.60;;
75935;SDS011;64614;32.062;34.834;2024-01-15T14:42:18;5.82;;;2.85;;
75935;SDS011;64614;32.062;34.834;2024-01-15T14:44:44;4.28;;;2.28;;
75935;SDS011;64614;32.062;34.834;2024-01-15T14:47:10;5.65;;;2.90;;
75935;SDS011;64614;32.062;34.834;2024-01-15T14:49:35;5.55;;;2.80;;
75935;SDS011;64614;32.062;34.834;2024-01-15T14:52:01;7.15;;;2.63;;
75935;SDS011;64614;32.062;34.834;2024-01-15T14:54:27;4.93;;;2.35;;
75935;SDS011;64614;32.062;34.834;2024-01-15T14:56:53;7.68;;;3.28;;
75935;SDS011;64614;32.062;34.834;2024-01-15T14:59:19;6.72;;;3.38;;
75935;SDS011;64614;32.062;34.834;2024-01-15T15:01:45;5.00;;;2.70;;
75935;SDS011;64614;32.062;34.834;2024-01-15T15:04:10;5.95;;;2.63;;
75935;SDS011;64614;32.062;34.834;2024-01-15T15:06:36;4.57;;;2.80;;
75935;SDS011;64614;32.062;34.834;2024-01-15T15:09:03;7.03;;;3.20;;
75935;SDS011;64614;32.062;34.834;2024-01-15T15:11:34;5.20;;;2.42;;
75935;SDS011;64614;32.062;34.834;2024-01-15T15:14:00;5.35;;;2.85;;
75935;SDS011;64614;32.062;34.834;2024-01-15T15:16:26;5.68;;;3.10;;
75935;SDS011;64614;32.062;34.834;2024-01-15T15:18:52;5.72;;;2.88;;
75935;SDS011;64614;32.062;34.834;2024-01-15T15:21:20;4.80;;;2.60;;
75935;SDS011;64614;32.062;34.834;2024-01-15T15:23:45;6.07;;;2.65;;
75935;SDS011;64614;32.062;34.834;2024-01-15T15:26:12;5.97;;;3.00;;
75935;SDS011;64614;32.062;34.834;2024-01-15T15:28:38;5.38;;;3.00;;
75935;SDS011;64614;32.062;34.834;2024-01-15T15:31:04;5.72;;;2.88;;
75935;SDS011;64614;32.062;34.834;2024-01-15T15:33:33;5.90;;;2.88;;
75935;SDS011;64614;32.062;34.834;2024-01-15T15:35:59;5.75;;;3.05;;
75935;SDS011;64614;32.062;34.834;2024-01-15T15:38:30;5.60;;;2.90;;
75935;SDS011;64614;32.062;34.834;2024-01-15T15:40:59;5.75;;;2.90;;
75935;SDS011;64614;32.062;34.834;2024-01-15T15:43:28;6.25;;;2.90;;
75935;SDS011;64614;32.062;34.834;2024-01-15T15:45:55;4.93;;;2.80;;
75935;SDS011;64614;32.062;34.834;2024-01-15T15:48:22;6.32;;;3.13;;
75935;SDS011;64614;32.062;34.834;2024-01-15T15:50:50;5.18;;;2.70;;
75935;SDS011;64614;32.062;34.834;2024-01-15T15:53:20;5.30;;;2.88;;
75935;SDS011;64614;32.062;34.834;2024-01-15T15:55:47;5.20;;;2.80;;
75935;SDS011;64614;32.062;34.834;2024-01-15T15:58:13;5.78;;;3.00;;
75935;SDS011;64614;32.062;34.834;2024-01-15T16:00:38;4.93;;;2.70;;
75935;SDS011;64614;32.062;34.834;2024-01-15T16:03:04;6.25;;;3.58;;
75935;SDS011;64614;32.062;34.834;2024-01-15T16:05:29;6.78;;;3.28;;
75935;SDS011;64614;32.062;34.834;2024-01-15T16:07:55;6.10;;;3.30;;
75935;SDS011;64614;32.062;34.834;2024-01-15T16:10:21;6.70;;;4.03;;
75935;SDS011;64614;32.062;34.834;2024-01-15T16:12:47;9.40;;;4.80;;
75935;SDS011;64614;32.062;34.834;2024-01-15T16:17:46;13.77;;;8.95;;
75935;SDS011;64614;32.062;34.834;2024-01-15T16:20:13;13.77;;;9.77;;
75935;SDS011;64614;32.062;34.834;2024-01-15T16:22:38;15.52;;;10.65;;
75935;SDS011;64614;32.062;34.834;2024-01-15T16:25:04;16.15;;;11.90;;
75935;SDS011;64614;32.062;34.834;2024-01-15T16:27:31;17.75;;;11.05;;
75935;SDS011;64614;32.062;34.834;2024-01-15T16:29:58;15.23;;;10.18;;
75935;SDS011;64614;32.062;34.834;2024-01-15T16:32:24;14.30;;;10.18;;
75935;SDS011;64614;32.062;34.834;2024-01-15T16:34:57;15.07;;;11.75;;
75935;SDS011;64614;32.062;34.834;2024-01-15T16:37:23;14.93;;;10.95;;
75935;SDS011;64614;32.062;34.834;2024-01-15T16:39:48;14.45;;;11.25;;
75935;SDS011;64614;32.062;34.834;2024-01-15T16:42:14;13.00;;;9.57;;
75935;SDS011;64614;32.062;34.834;2024-01-15T16:44:41;13.40;;;9.77;;
75935;SDS011;64614;32.062;34.834;2024-01-15T16:47:07;16.13;;;9.90;;
75935;SDS011;64614;32.062;34.834;2024-01-15T16:49:34;16.48;;;10.00;;
75935;SDS011;64614;32.062;34.834;2024-01-15T16:52:01;13.95;;;10.80;;
75935;SDS011;64614;32.062;34.834;2024-01-15T16:54:29;15.95;;;12.75;;
75935;SDS011;64614;32.062;34.834;2024-01-15T16:56:56;15.45;;;12.40;;
75935;SDS011;64614;32.062;34.834;2024-01-15T16:59:21;17.02;;;13.13;;
75935;SDS011;64614;32.062;34.834;2024-01-15T17:01:47;17.80;;;13.77;;
75935;SDS011;64614;32.062;34.834;2024-01-15T17:04:12;17.20;;;13.05;;
75935;SDS011;64614;32.062;34.834;2024-01-15T17:06:38;18.15;;;13.68;;
75935;SDS011;64614;32.062;34.834;2024-01-15T17:09:04;17.30;;;13.27;;
75935;SDS011;64614;32.062;34.834;2024-01-15T17:11:30;17.05;;;13.10;;
75935;SDS011;64614;32.062;34.834;2024-01-15T17:13:55;16.80;;;13.23;;
75935;SDS011;64614;32.062;34.834;2024-01-15T17:16:22;18.80;;;15.30;;
75935;SDS011;64614;32.062;34.834;2024-01-15T17:18:55;21.60;;;15.95;;
75935;SDS011;64614;32.062;34.834;2024-01-15T17:21:20;18.00;;;15.57;;
75935;SDS011;64614;32.062;34.834;2024-01-15T17:23:46;18.05;;;14.40;;
75935;SDS011;64614;32.062;34.834;2024-01-15T17:26:13;20.92;;;15.57;;
75935;SDS011;64614;32.062;34.834;2024-01-15T17:28:40;18.02;;;14.00;;
75935;SDS011;64614;32.062;34.834;2024-01-15T17:31:06;17.48;;;14.43;;
75935;SDS011;64614;32.062;34.834;2024-01-15T17:33:32;17.15;;;14.52;;
75935;SDS011;64614;32.062;34.834;2024-01-15T17:46:18;16.92;;;12.63;;
75935;SDS011;64614;32.062;34.834;2024-01-15T17:53:54;15.25;;;10.77;;
75935;SDS011;64614;32.062;34.834;2024-01-15T17:56:21;16.38;;;12.02;;
75935;SDS011;64614;32.062;34.834;2024-01-15T17:58:47;16.13;;;11.75;;
75935;SDS011;64614;32.062;34.834;2024-01-15T18:01:13;14.25;;;10.02;;
75935;SDS011;64614;32.062;34.834;2024-01-15T18:03:40;14.18;;;11.60;;
75935;SDS011;64614;32.062;34.834;2024-01-15T18:20:46;14.70;;;12.07;;
75935;SDS011;64614;32.062;34.834;2024-01-15T18:23:12;14.38;;;12.73;;
75935;SDS011;64614;32.062;34.834;2024-01-15T18:25:38;12.93;;;10.93;;